Time;durP1;ratioP1;P1;durP2;ratioP2;P2;SDS_P1;SDS_P2;PMS_P1;PMS_P2;Temp;Humidity;BMP_temperature;BMP_pressure;BME280_temperature;BME280_humidity;BME280_pressure;Samples;Min_cycle;Max_cycle;Signal;HPM_P1;HPM_P2
2022/11/10 00:00:34;;;;;;;20.47;13.30;;;6.70;99.90;;;;;;5057002;28;20185;-80
2022/11/10 00:03:05;;;;;;;18.17;12.30;;;6.70;99.90;;;;;;5056563;28;20584;-81
2022/11/10 00:05:32;;;;;;;22.50;12.43;;;6.60;99.90;;;;;;5054549;28;20182;-83
2022/11/10 00:08:03;;;;;;;19.43;12.67;;;6.70;99.90;;;;;;5056257;28;20186;-80
2022/11/10 00:10:29;;;;;;;22.90;13.33;;;6.70;99.90;;;;;;5038276;28;20262;-81
2022/11/10 00:13:02;;;;;;;25.17;13.60;;;6.80;99.90;;;;;;5054733;28;20282;-82
2022/11/10 00:18:13;;;;;;;17.20;12.53;;;6.80;99.90;;;;;;5055262;28;20648;-80
2022/11/10 00:20:38;;;;;;;17.57;12.23;;;6.70;99.90;;;;;;5055056;28;20169;-80
2022/11/10 00:23:07;;;;;;;15.43;10.93;;;6.60;99.90;;;;;;5055650;28;20177;-80
2022/11/10 00:25:33;;;;;;;16.37;10.53;;;6.60;99.90;;;;;;5037191;28;20183;-80
2022/11/10 00:28:02;;;;;;;15.20;10.90;;;6.60;99.90;;;;;;5054777;28;20663;-81
2022/11/10 00:30:27;;;;;;;14.97;10.00;;;6.50;99.90;;;;;;5037285;28;20184;-80
2022/11/10 00:32:53;;;;;;;14.57;11.00;;;6.40;99.90;;;;;;5036791;28;20189;-80
2022/11/10 00:35:19;;;;;;;17.23;11.93;;;6.40;99.90;;;;;;5037070;28;20217;-81
2022/11/10 00:37:45;;;;;;;16.13;10.60;;;6.50;99.90;;;;;;5053755;28;20227;-82
2022/11/10 00:40:11;;;;;;;16.73;11.27;;;6.50;99.90;;;;;;5053820;28;20230;-83
2022/11/10 00:42:36;;;;;;;19.33;12.17;;;6.50;99.90;;;;;;5057286;28;20185;-83
2022/11/10 00:45:02;;;;;;;17.47;11.63;;;6.60;99.90;;;;;;5066938;28;20532;-80
2022/11/10 00:47:28;;;;;;;18.37;11.27;;;6.60;99.90;;;;;;5059143;28;20180;-85
2022/11/10 00:49:54;;;;;;;22.70;13.03;;;6.60;99.90;;;;;;5055761;28;20183;-83
2022/11/10 00:52:20;;;;;;;19.03;12.53;;;6.70;99.90;;;;;;5054909;28;20179;-85
2022/11/10 00:54:46;;;;;;;21.00;13.10;;;6.70;99.90;;;;;;5054846;28;20730;-83
2022/11/10 00:57:11;;;;;;;19.90;12.10;;;6.80;99.90;;;;;;5053973;28;20182;-86
2022/11/10 00:59:37;;;;;;;20.60;13.23;;;6.80;99.90;;;;;;5054560;28;20176;-87
2022/11/10 01:02:03;;;;;;;19.70;12.27;;;6.80;99.90;;;;;;5054352;28;20244;-83
2022/11/10 01:04:28;;;;;;;21.90;12.70;;;6.80;99.90;;;;;;5053993;28;20178;-87
2022/11/10 01:06:54;;;;;;;21.90;13.03;;;6.90;99.90;;;;;;5056111;28;20220;-87
2022/11/10 01:09:20;;;;;;;20.70;12.37;;;6.90;99.90;;;;;;5057119;28;20183;-85
2022/11/10 01:11:46;;;;;;;21.40;12.57;;;6.90;99.90;;;;;;5054357;28;20191;-86
2022/11/10 01:14:11;;;;;;;19.07;12.33;;;6.90;99.90;;;;;;5054371;28;20181;-81
2022/11/10 01:16:37;;;;;;;18.03;12.10;;;6.90;99.90;;;;;;5053436;28;20266;-80
2022/11/10 01:19:03;;;;;;;17.20;12.50;;;6.90;99.90;;;;;;5054330;28;20176;-80
2022/11/10 01:21:29;;;;;;;17.33;11.37;;;6.90;99.90;;;;;;5052874;28;20186;-84
2022/11/10 01:23:56;;;;;;;19.33;12.83;;;6.80;99.90;;;;;;5054101;28;20592;-85
2022/11/10 01:26:23;;;;;;;16.70;11.37;;;6.70;99.90;;;;;;5053844;28;20182;-87
2022/11/10 01:28:48;;;;;;;15.97;11.33;;;6.70;99.90;;;;;;5054096;28;20168;-87
2022/11/10 01:31:17;;;;;;;17.20;11.40;;;6.60;99.90;;;;;;5054037;28;20716;-84
2022/11/10 01:33:43;;;;;;;19.73;12.13;;;6.50;99.90;;;;;;5053806;28;20257;-85
2022/11/10 01:36:10;;;;;;;18.27;11.63;;;6.50;99.90;;;;;;5054276;28;20734;-80
2022/11/10 01:38:38;;;;;;;17.97;11.20;;;6.50;99.90;;;;;;5056393;28;20265;-80
2022/11/10 01:41:06;;;;;;;16.97;10.73;;;6.50;99.90;;;;;;5055206;28;20639;-79
2022/11/10 01:43:33;;;;;;;17.90;11.67;;;6.30;99.90;;;;;;5053762;28;20181;-81
2022/11/10 01:46:06;;;;;;;14.40;11.10;;;6.20;99.90;;;;;;5055177;28;20190;-86
2022/11/10 01:48:34;;;;;;;17.10;11.57;;;6.20;99.90;;;;;;5053463;28;20491;-78
2022/11/10 01:51:06;;;;;;;18.80;11.03;;;6.20;99.90;;;;;;5052214;28;20261;-80
2022/11/10 01:53:37;;;;;;;19.27;12.13;;;6.10;99.90;;;;;;5052827;28;20213;-85
2022/11/10 01:56:03;;;;;;;17.83;12.07;;;6.10;99.90;;;;;;5054573;28;20211;-82
2022/11/10 01:58:38;;;;;;;17.17;12.47;;;6.20;99.90;;;;;;5053510;28;20178;-80
2022/11/10 02:01:08;;;;;;;16.87;11.93;;;6.20;99.90;;;;;;5057744;28;20163;-79
2022/11/10 02:03:46;;;;;;;20.73;12.57;;;6.10;99.90;;;;;;5052854;28;20665;-81
2022/11/10 02:06:12;;;;;;;14.93;10.80;;;6.20;99.90;;;;;;5052824;28;20296;-82
2022/11/10 02:08:40;;;;;;;14.60;10.90;;;6.20;99.90;;;;;;5052115;28;20183;-83
2022/11/10 02:11:06;;;;;;;16.57;11.23;;;6.10;99.90;;;;;;5052287;28;20587;-82
2022/11/10 02:13:31;;;;;;;18.57;11.97;;;6.10;99.90;;;;;;5052802;28;20202;-80
2022/11/10 02:15:57;;;;;;;17.23;11.23;;;6.10;99.90;;;;;;5052544;28;20759;-82
2022/11/10 02:18:23;;;;;;;21.47;11.63;;;6.10;99.90;;;;;;5052468;28;20200;-79
2022/11/10 02:20:49;;;;;;;14.73;10.40;;;6.10;99.90;;;;;;5052537;28;20520;-79
2022/11/10 02:23:30;;;;;;;18.77;10.50;;;6.00;99.90;;;;;;5055096;28;20203;-82
2022/11/10 02:25:56;;;;;;;16.03;10.67;;;6.00;99.90;;;;;;5060994;28;20185;-83
2022/11/10 02:28:23;;;;;;;18.20;11.27;;;6.00;99.90;;;;;;5057150;28;20520;-82
2022/11/10 02:30:50;;;;;;;16.93;10.83;;;6.00;99.90;;;;;;5052972;28;20189;-85
2022/11/10 02:33:18;;;;;;;20.97;11.97;;;6.00;99.90;;;;;;5052437;28;20574;-86
2022/11/10 02:35:45;;;;;;;18.63;11.57;;;6.10;99.90;;;;;;5052870;28;20215;-87
2022/11/10 02:38:11;;;;;;;18.83;11.63;;;6.20;99.90;;;;;;5052792;28;20539;-87
2022/11/10 02:40:37;;;;;;;21.73;11.90;;;6.20;99.90;;;;;;5051452;28;20185;-87
2022/11/10 02:43:06;;;;;;;17.47;11.53;;;6.20;99.90;;;;;;5059892;28;20216;-81
2022/11/10 02:45:31;;;;;;;17.83;11.70;;;6.30;99.90;;;;;;5067022;28;20210;-84
2022/11/10 02:47:57;;;;;;;19.43;11.80;;;6.30;99.90;;;;;;5053466;28;20175;-86
2022/11/10 02:50:23;;;;;;;20.70;11.80;;;6.30;99.90;;;;;;5051526;28;20253;-85
2022/11/10 02:52:49;;;;;;;20.67;12.80;;;6.30;99.90;;;;;;5052568;28;20214;-85
2022/11/10 02:55:15;;;;;;;18.40;11.90;;;6.40;99.90;;;;;;5051706;28;20626;-85
2022/11/10 02:57:41;;;;;;;24.37;11.23;;;6.30;99.90;;;;;;5052201;28;20182;-85
2022/11/10 03:00:07;;;;;;;18.97;11.97;;;6.20;99.90;;;;;;5052523;28;20187;-84
2022/11/10 03:02:35;;;;;;;18.87;11.23;;;6.20;99.90;;;;;;5056412;28;20204;-83
2022/11/10 03:05:00;;;;;;;19.77;11.30;;;6.20;99.90;;;;;;5055401;28;20265;-84
2022/11/10 03:07:26;;;;;;;20.33;12.03;;;6.30;99.90;;;;;;5053632;28;20188;-84
2022/11/10 03:09:52;;;;;;;17.57;10.97;;;6.30;99.90;;;;;;5051054;28;20506;-82
2022/11/10 03:12:18;;;;;;;18.50;11.50;;;6.40;99.90;;;;;;5052207;28;20178;-83
2022/11/10 03:14:43;;;;;;;17.63;11.27;;;6.40;99.90;;;;;;5052515;28;20231;-83
2022/11/10 03:17:09;;;;;;;20.60;11.57;;;6.40;99.90;;;;;;5053797;28;20698;-82
2022/11/10 03:19:35;;;;;;;23.67;12.10;;;6.50;99.90;;;;;;5055261;28;20173;-83
2022/11/10 03:22:01;;;;;;;16.60;10.73;;;6.60;99.90;;;;;;5067857;28;20244;-84
2022/11/10 03:24:27;;;;;;;18.50;12.07;;;6.60;99.90;;;;;;5062783;28;20546;-82
2022/11/10 03:26:53;;;;;;;16.73;11.60;;;6.60;99.90;;;;;;5055456;28;20226;-87
2022/11/10 03:29:18;;;;;;;15.77;10.33;;;6.60;99.90;;;;;;5057488;28;20187;-83
2022/11/10 03:31:44;;;;;;;16.03;10.67;;;6.70;99.90;;;;;;5056679;28;20179;-84
2022/11/10 03:34:13;;;;;;;17.00;10.57;;;6.70;99.90;;;;;;5056072;28;20634;-86
2022/11/10 03:36:39;;;;;;;16.03;10.23;;;6.70;99.90;;;;;;5055337;28;20220;-85
2022/11/10 03:39:05;;;;;;;15.80;10.60;;;6.60;99.90;;;;;;5056035;28;20591;-85
2022/11/10 03:41:30;;;;;;;14.90;10.53;;;6.50;99.90;;;;;;5058758;28;20191;-85
2022/11/10 03:43:56;;;;;;;14.57;10.17;;;6.60;99.90;;;;;;5056094;28;20176;-85
2022/11/10 03:46:22;;;;;;;15.77;11.17;;;6.60;99.90;;;;;;5055632;28;20721;-83
2022/11/10 03:48:48;;;;;;;17.47;11.00;;;6.60;99.90;;;;;;5055365;28;20319;-80
2022/11/10 03:51:14;;;;;;;16.17;11.83;;;6.70;99.90;;;;;;5055491;28;20188;-81
2022/11/10 03:53:39;;;;;;;15.53;9.93;;;6.60;99.90;;;;;;5055289;28;20183;-84
2022/11/10 03:56:06;;;;;;;18.87;10.77;;;6.50;99.90;;;;;;5053848;28;20226;-80
2022/11/10 03:58:31;;;;;;;17.03;9.77;;;6.50;99.90;;;;;;5055026;28;20205;-80
2022/11/10 04:00:57;;;;;;;16.17;10.20;;;6.40;99.90;;;;;;5053730;28;20189;-81
2022/11/10 04:03:23;;;;;;;12.27;9.07;;;6.30;99.90;;;;;;5055197;28;20231;-83
2022/11/10 04:16:46;;;;;;;18.60;11.13;;;6.30;99.90;;;;;;5055144;28;20285;-85
2022/11/10 04:19:12;;;;;;;17.00;10.83;;;6.30;99.90;;;;;;5056791;28;20535;-82
2022/11/10 04:21:38;;;;;;;16.50;10.20;;;6.30;99.90;;;;;;5055020;28;20588;-85
2022/11/10 04:24:04;;;;;;;14.17;9.53;;;6.30;99.90;;;;;;5054377;28;20179;-85
2022/11/10 04:26:29;;;;;;;16.47;11.10;;;6.20;99.90;;;;;;5054835;28;20675;-86
2022/11/10 04:28:57;;;;;;;19.47;11.83;;;6.20;99.90;;;;;;5053577;28;20211;-85
2022/11/10 04:31:25;;;;;;;16.27;11.20;;;6.20;99.90;;;;;;5054559;28;20264;-87
2022/11/10 04:33:52;;;;;;;15.80;10.80;;;6.30;99.90;;;;;;5057527;28;20223;-85
2022/11/10 04:36:20;;;;;;;16.90;10.90;;;6.30;99.90;;;;;;5056218;28;20214;-86
2022/11/10 04:38:47;;;;;;;18.27;10.80;;;6.40;99.90;;;;;;5055369;28;20181;-84
2022/11/10 04:41:13;;;;;;;15.83;10.43;;;6.30;99.90;;;;;;5054039;28;20284;-85
2022/11/10 04:43:39;;;;;;;12.27;9.33;;;6.20;99.90;;;;;;5055654;28;20633;-87
2022/11/10 04:46:06;;;;;;;17.47;10.90;;;6.20;99.90;;;;;;5054990;28;20187;-86
2022/11/10 04:48:33;;;;;;;16.67;10.33;;;6.10;99.90;;;;;;5054781;28;20267;-85
2022/11/10 04:51:06;;;;;;;14.50;10.13;;;6.10;99.90;;;;;;5054408;28;20187;-86
2022/11/10 04:53:32;;;;;;;15.67;10.73;;;6.20;99.90;;;;;;5056383;28;20169;-87
2022/11/10 04:55:58;;;;;;;16.27;10.60;;;6.10;99.90;;;;;;5054938;28;20274;-86
2022/11/10 04:58:24;;;;;;;14.67;10.87;;;6.20;99.90;;;;;;5054639;28;20636;-83
2022/11/10 05:00:50;;;;;;;18.80;12.07;;;6.30;99.90;;;;;;5053573;28;20543;-85
2022/11/10 05:03:15;;;;;;;16.33;10.83;;;6.20;99.90;;;;;;5059163;28;20662;-84
2022/11/10 05:05:41;;;;;;;18.20;10.43;;;6.20;99.90;;;;;;5065858;28;20185;-80
2022/11/10 05:08:08;;;;;;;15.80;11.30;;;6.20;99.90;;;;;;5067103;28;20606;-85
2022/11/10 05:10:35;;;;;;;16.87;11.10;;;6.20;99.90;;;;;;5067972;28;20179;-85
2022/11/10 05:13:03;;;;;;;17.57;11.70;;;6.30;99.90;;;;;;5064954;28;20168;-86
2022/11/10 05:15:30;;;;;;;17.03;10.67;;;6.40;99.90;;;;;;5057904;28;20251;-82
2022/11/10 05:17:56;;;;;;;18.83;11.20;;;6.50;99.90;;;;;;5052945;28;20256;-81
2022/11/10 05:20:24;;;;;;;18.37;11.13;;;6.50;99.90;;;;;;5053941;28;20217;-82
2022/11/10 05:25:40;;;;;;;18.60;11.30;;;6.40;99.90;;;;;;5054393;28;20904;-81
2022/11/10 05:28:08;;;;;;;16.87;10.60;;;6.50;99.90;;;;;;5053688;28;20679;-80
2022/11/10 05:30:34;;;;;;;19.00;11.47;;;6.50;99.90;;;;;;5053313;28;20189;-81
2022/11/10 05:33:01;;;;;;;19.63;10.73;;;6.60;99.90;;;;;;5053753;28;20182;-81
2022/11/10 05:35:27;;;;;;;17.83;10.97;;;6.60;99.90;;;;;;5054563;28;20213;-79
2022/11/10 05:37:52;;;;;;;16.67;11.50;;;6.60;99.90;;;;;;5053776;28;20213;-80
2022/11/10 05:40:18;;;;;;;15.90;10.27;;;6.50;99.90;;;;;;5052248;28;20302;-82
2022/11/10 05:42:46;;;;;;;18.63;11.37;;;6.40;99.90;;;;;;5050985;28;20194;-81
2022/11/10 05:45:13;;;;;;;15.27;11.60;;;6.50;99.90;;;;;;5055012;28;20175;-79
2022/11/10 05:47:39;;;;;;;16.53;11.30;;;6.50;99.90;;;;;;5054490;28;20193;-82
2022/11/10 05:50:05;;;;;;;19.63;11.70;;;6.40;99.90;;;;;;5054225;28;20178;-79
2022/11/10 05:52:31;;;;;;;19.80;11.50;;;6.40;99.90;;;;;;5054482;28;20196;-85
2022/11/10 05:54:57;;;;;;;16.07;10.83;;;6.40;99.90;;;;;;5053594;28;20656;-87
2022/11/10 05:57:23;;;;;;;16.33;11.13;;;6.30;99.90;;;;;;5053628;28;20612;-87
2022/11/10 05:59:49;;;;;;;18.47;10.57;;;6.20;99.90;;;;;;5053282;28;20542;-84
2022/11/10 06:02:14;;;;;;;16.23;10.77;;;6.10;99.90;;;;;;5053393;28;20176;-85
2022/11/10 06:04:40;;;;;;;16.77;11.30;;;6.00;99.90;;;;;;5053185;28;20170;-84
2022/11/10 06:07:10;;;;;;;18.33;12.53;;;6.10;99.90;;;;;;5052641;28;20259;-85
2022/11/10 06:09:36;;;;;;;15.77;10.33;;;6.20;99.90;;;;;;5052690;28;20177;-86
2022/11/10 06:12:03;;;;;;;16.07;11.37;;;6.40;99.90;;;;;;5053806;28;20184;-86
2022/11/10 06:14:29;;;;;;;15.70;10.30;;;6.40;99.90;;;;;;5053860;28;20575;-85
2022/11/10 06:16:57;;;;;;;16.40;11.33;;;6.40;99.90;;;;;;5054256;28;20312;-86
2022/11/10 06:19:23;;;;;;;16.77;10.13;;;6.30;99.90;;;;;;5026090;28;20286;-85
2022/11/10 06:21:48;;;;;;;16.60;11.07;;;6.50;99.90;;;;;;5037360;28;20207;-83
2022/11/10 06:24:14;;;;;;;16.47;11.37;;;6.60;99.90;;;;;;5036185;28;20252;-85
2022/11/10 06:26:40;;;;;;;15.67;10.03;;;6.60;99.90;;;;;;5035401;28;20178;-86
2022/11/10 06:29:06;;;;;;;15.60;9.93;;;6.60;99.90;;;;;;5034116;28;20177;-85
2022/11/10 06:31:32;;;;;;;16.23;10.27;;;6.80;99.90;;;;;;5032627;28;20576;-86
2022/11/10 06:33:57;;;;;;;14.03;10.07;;;6.90;99.90;;;;;;5035626;28;20235;-84
2022/11/10 06:36:23;;;;;;;15.00;10.77;;;6.90;99.90;;;;;;5036482;28;20213;-85
2022/11/10 06:38:49;;;;;;;14.60;9.97;;;7.00;99.90;;;;;;5033912;28;20643;-85
2022/11/10 06:41:15;;;;;;;18.93;11.20;;;7.00;99.90;;;;;;5033590;28;20198;-83
2022/11/10 06:43:41;;;;;;;17.50;10.70;;;7.10;99.90;;;;;;5034876;28;20191;-86
2022/11/10 06:46:07;;;;;;;16.27;10.90;;;7.10;99.90;;;;;;5043217;28;20187;-85
2022/11/10 06:48:33;;;;;;;14.03;10.30;;;7.10;99.90;;;;;;5040925;28;20688;-85
2022/11/10 06:51:02;;;;;;;16.63;11.57;;;7.20;99.90;;;;;;5034013;28;20653;-84
2022/11/10 06:53:28;;;;;;;16.83;11.57;;;7.20;99.90;;;;;;5034595;28;20187;-85
2022/11/10 06:55:54;;;;;;;16.10;11.53;;;7.30;99.90;;;;;;5038363;28;20294;-86
2022/11/10 06:58:19;;;;;;;16.77;10.63;;;7.30;99.90;;;;;;5038547;28;20182;-83
2022/11/10 07:00:45;;;;;;;18.53;10.93;;;7.30;99.90;;;;;;5037522;28;20191;-84
2022/11/10 07:03:13;;;;;;;14.77;11.37;;;7.50;99.90;;;;;;5037486;28;20177;-84
2022/11/10 07:05:39;;;;;;;14.97;10.93;;;7.40;99.90;;;;;;5039798;28;20213;-85
2022/11/10 07:08:08;;;;;;;17.90;11.13;;;7.50;99.90;;;;;;5039409;28;20182;-79
2022/11/10 07:10:35;;;;;;;15.70;11.63;;;7.40;99.90;;;;;;5037592;28;20183;-78
2022/11/10 07:13:03;;;;;;;16.80;10.97;;;7.40;99.90;;;;;;5039220;28;20524;-80
2022/11/10 07:15:30;;;;;;;16.93;11.13;;;7.40;99.90;;;;;;5046860;28;20235;-81
2022/11/10 07:17:56;;;;;;;15.87;10.90;;;7.50;99.90;;;;;;5057334;28;20192;-81
2022/11/10 07:20:22;;;;;;;17.33;11.83;;;7.50;99.90;;;;;;5057639;28;20192;-81
2022/11/10 07:22:48;;;;;;;15.90;11.70;;;7.50;99.90;;;;;;5057632;28;20502;-77
2022/11/10 07:25:14;;;;;;;16.57;10.80;;;7.60;99.90;;;;;;5058528;28;20187;-82
2022/11/10 07:27:40;;;;;;;16.13;11.07;;;7.60;99.90;;;;;;5064004;28;20207;-80
2022/11/10 07:30:06;;;;;;;14.90;11.40;;;7.70;99.90;;;;;;5058936;28;20182;-82
2022/11/10 07:32:32;;;;;;;15.57;11.47;;;7.70;99.90;;;;;;5061624;28;20238;-84
2022/11/10 07:34:58;;;;;;;15.27;11.27;;;7.80;99.90;;;;;;5057184;28;20283;-84
2022/11/10 07:37:24;;;;;;;16.43;10.93;;;7.90;99.90;;;;;;5057704;28;20651;-85
2022/11/10 07:39:50;;;;;;;18.70;11.53;;;7.90;99.90;;;;;;5058557;28;20187;-85
2022/11/10 07:42:15;;;;;;;17.10;11.83;;;8.00;99.90;;;;;;5040145;28;20197;-85
2022/11/10 07:44:41;;;;;;;15.63;11.70;;;8.00;99.90;;;;;;5038984;28;20190;-85
2022/11/10 07:47:07;;;;;;;17.23;12.23;;;8.00;99.90;;;;;;5039450;28;20194;-85
2022/11/10 07:49:33;;;;;;;16.20;12.20;;;8.10;99.90;;;;;;5057461;28;20263;-86
2022/11/10 07:51:59;;;;;;;17.30;12.93;;;8.20;99.90;;;;;;5056884;28;20600;-86
2022/11/10 07:54:24;;;;;;;21.17;13.17;;;8.40;99.90;;;;;;5061555;28;20179;-86
2022/11/10 07:56:52;;;;;;;16.30;12.20;;;8.40;99.90;;;;;;5057698;28;20731;-85
2022/11/10 07:59:18;;;;;;;21.60;12.40;;;8.60;99.90;;;;;;5057606;28;20270;-85
2022/11/10 08:01:45;;;;;;;16.73;11.63;;;8.70;99.90;;;;;;5039024;28;20222;-86
2022/11/10 08:04:11;;;;;;;16.50;11.37;;;8.80;99.90;;;;;;5058000;28;20684;-83
2022/11/10 08:06:37;;;;;;;15.97;11.53;;;8.80;99.90;;;;;;5056005;28;20268;-85
2022/11/10 08:09:02;;;;;;;20.50;13.10;;;8.90;99.90;;;;;;5057305;28;20267;-83
2022/11/10 08:11:28;;;;;;;17.60;12.13;;;8.90;99.90;;;;;;5056536;28;20261;-79
2022/11/10 08:13:54;;;;;;;20.83;12.57;;;8.90;99.90;;;;;;5056657;28;20187;-84
2022/11/10 08:16:20;;;;;;;16.40;11.90;;;9.00;99.90;;;;;;5038500;28;20773;-84
2022/11/10 08:18:46;;;;;;;18.00;12.17;;;9.00;99.90;;;;;;5060048;28;20273;-83
2022/11/10 08:21:12;;;;;;;18.50;11.73;;;9.00;99.90;;;;;;5057965;28;20176;-86
2022/11/10 08:23:38;;;;;;;16.93;11.53;;;9.00;99.90;;;;;;5062417;28;20230;-84
2022/11/10 08:26:04;;;;;;;17.83;12.67;;;9.10;99.90;;;;;;5057018;28;20594;-84
2022/11/10 08:28:30;;;;;;;18.67;11.90;;;9.00;99.90;;;;;;5056482;28;20543;-87
2022/11/10 08:30:56;;;;;;;16.73;11.73;;;9.00;99.90;;;;;;5056719;28;20216;-86
2022/11/10 08:33:22;;;;;;;16.10;11.60;;;8.90;99.90;;;;;;5038661;28;20184;-83
2022/11/10 08:35:50;;;;;;;16.70;12.10;;;9.00;99.90;;;;;;5056655;28;20225;-84
2022/11/10 08:38:20;;;;;;;19.50;12.03;;;9.00;99.90;;;;;;5038488;28;20241;-85
2022/11/10 08:40:46;;;;;;;16.57;11.30;;;9.10;99.90;;;;;;5055948;28;20187;-84
2022/11/10 08:43:13;;;;;;;16.87;12.13;;;9.10;99.90;;;;;;5056947;28;20251;-82
2022/11/10 08:45:41;;;;;;;17.53;11.73;;;9.10;99.90;;;;;;5038135;28;20180;-85
2022/11/10 08:48:10;;;;;;;16.13;11.07;;;9.20;99.90;;;;;;5055887;28;20180;-82
2022/11/10 08:50:36;;;;;;;14.50;11.23;;;9.30;99.90;;;;;;5037613;28;20187;-81
2022/11/10 08:53:05;;;;;;;15.97;12.07;;;9.20;99.90;;;;;;5055670;28;20743;-84
2022/11/10 08:55:31;;;;;;;16.83;11.67;;;9.30;99.90;;;;;;5056214;28;20205;-83
2022/11/10 08:58:02;;;;;;;15.73;12.10;;;9.30;99.90;;;;;;5057700;28;20262;-83
2022/11/10 09:00:29;;;;;;;18.07;12.07;;;9.30;99.90;;;;;;5038281;28;20185;-82
2022/11/10 09:02:55;;;;;;;15.17;11.03;;;9.20;99.90;;;;;;5056395;28;20174;-79
2022/11/10 09:05:22;;;;;;;18.03;12.37;;;9.20;99.90;;;;;;5055255;28;20183;-81
2022/11/10 09:07:49;;;;;;;19.33;12.03;;;9.20;99.90;;;;;;5055695;28;20172;-80
2022/11/10 09:10:15;;;;;;;14.90;11.30;;;9.20;99.90;;;;;;5037418;28;20285;-80
2022/11/10 09:12:42;;;;;;;18.13;12.00;;;9.20;99.90;;;;;;5059369;28;20177;-80
2022/11/10 09:15:09;;;;;;;17.77;11.67;;;9.10;99.90;;;;;;5065084;28;20214;-83
2022/11/10 09:17:36;;;;;;;16.80;12.00;;;9.10;99.90;;;;;;5057699;28;20205;-83
2022/11/10 09:20:04;;;;;;;17.03;11.50;;;9.10;99.90;;;;;;5055854;28;20236;-83
2022/11/10 09:22:30;;;;;;;18.10;11.80;;;9.10;99.90;;;;;;5056731;28;20181;-83
2022/11/10 09:24:56;;;;;;;16.17;11.87;;;9.20;99.90;;;;;;5056156;28;20189;-84
2022/11/10 09:27:22;;;;;;;18.83;12.57;;;9.10;99.90;;;;;;5055826;28;20174;-80
2022/11/10 09:29:48;;;;;;;21.47;11.57;;;9.10;99.90;;;;;;5037672;28;20217;-84
2022/11/10 09:32:14;;;;;;;18.80;12.23;;;9.00;99.90;;;;;;5039305;28;20191;-83
2022/11/10 09:34:40;;;;;;;15.43;10.93;;;9.00;99.90;;;;;;5037921;28;20573;-80
2022/11/10 09:37:05;;;;;;;18.87;12.00;;;9.10;99.90;;;;;;5054718;28;20554;-83
2022/11/10 09:39:31;;;;;;;14.93;11.20;;;9.00;99.90;;;;;;5036759;28;20193;-84
2022/11/10 09:41:57;;;;;;;17.10;11.50;;;9.00;99.90;;;;;;5054621;28;20254;-86
2022/11/10 09:44:29;;;;;;;14.57;11.40;;;9.00;99.90;;;;;;5054872;28;20183;-85
2022/11/10 09:47:13;;;;;;;19.43;12.63;;;9.10;99.90;;;;;;5054879;28;20269;-83
2022/11/10 09:49:44;;;;;;;16.77;12.20;;;9.10;99.90;;;;;;5055538;28;20178;-83
2022/11/10 09:52:12;;;;;;;19.43;13.60;;;9.10;99.90;;;;;;5054628;28;20516;-84
2022/11/10 09:54:51;;;;;;;16.03;12.27;;;9.10;99.90;;;;;;5056099;28;20186;-81
2022/11/10 09:57:23;;;;;;;18.87;12.13;;;9.10;99.90;;;;;;5054870;28;20242;-85
2022/11/10 09:59:50;;;;;;;16.40;12.37;;;9.10;99.90;;;;;;5039134;28;20205;-82
2022/11/10 10:02:38;;;;;;;22.07;13.30;;;9.10;99.90;;;;;;5058352;28;20189;-82
2022/11/10 10:05:28;;;;;;;17.40;13.07;;;9.30;99.90;;;;;;5054686;28;20169;-85
2022/11/10 10:08:22;;;;;;;19.23;12.63;;;9.20;99.90;;;;;;5054386;28;20711;-85
2022/11/10 10:10:59;;;;;;;17.40;12.67;;;9.20;99.90;;;;;;5054135;28;20189;-81
2022/11/10 10:13:46;;;;;;;19.87;13.10;;;9.20;99.90;;;;;;5054454;28;20224;-82
2022/11/10 10:16:51;;;;;;;17.87;12.80;;;9.30;99.90;;;;;;5053792;28;20231;-80
2022/11/10 10:19:22;;;;;;;17.53;12.43;;;9.30;99.90;;;;;;5054446;28;20177;-79
2022/11/10 10:22:27;;;;;;;21.77;13.97;;;9.40;99.90;;;;;;5053914;28;20174;-81
2022/11/10 10:24:58;;;;;;;17.27;14.00;;;9.40;99.90;;;;;;4953951;29;20741;-84
2022/11/10 10:27:25;;;;;;;20.00;13.37;;;9.50;99.90;;;;;;4954279;29;20236;-85
2022/11/10 10:29:52;;;;;;;18.07;13.57;;;9.50;99.90;;;;;;4997700;28;20191;-86
2022/11/10 10:32:21;;;;;;;21.67;13.63;;;9.50;99.90;;;;;;5054347;28;20194;-85
2022/11/10 10:34:47;;;;;;;20.30;13.40;;;9.60;99.90;;;;;;5036807;28;20254;-83
2022/11/10 10:37:26;;;;;;;18.63;13.43;;;9.60;99.90;;;;;;5055022;28;20219;-83
2022/11/10 10:39:56;;;;;;;21.07;13.77;;;9.70;99.90;;;;;;5036398;28;20190;-81
2022/11/10 10:42:31;;;;;;;16.17;13.30;;;9.70;99.90;;;;;;5036462;28;20652;-84
2022/11/10 10:45:26;;;;;;;20.70;13.73;;;9.70;99.90;;;;;;5056038;28;20209;-83
2022/11/10 10:47:54;;;;;;;18.70;13.50;;;9.80;99.90;;;;;;5038537;28;20273;-80
2022/11/10 10:50:21;;;;;;;17.80;13.60;;;9.80;99.90;;;;;;5059558;28;20178;-83
2022/11/10 10:53:05;;;;;;;20.80;14.53;;;9.90;99.90;;;;;;5038842;28;20193;-86
2022/11/10 10:55:32;;;;;;;16.97;13.93;;;9.90;99.90;;;;;;5054639;28;20207;-83
2022/11/10 10:58:01;;;;;;;19.20;14.23;;;9.90;99.90;;;;;;5055130;28;20175;-83
2022/11/10 11:00:28;;;;;;;22.43;13.93;;;9.90;99.90;;;;;;5038200;28;20187;-85
2022/11/10 11:03:18;;;;;;;17.40;13.97;;;9.90;99.90;;;;;;5057478;28;20193;-84
2022/11/10 11:06:00;;;;;;;18.67;13.53;;;10.00;99.90;;;;;;5054660;28;20176;-84
2022/11/10 11:08:27;;;;;;;15.27;12.20;;;10.00;99.90;;;;;;5054153;28;20237;-81
2022/11/10 11:10:52;;;;;;;16.57;12.50;;;10.00;99.90;;;;;;5055745;28;20194;-83
2022/11/10 11:13:25;;;;;;;18.93;12.73;;;10.00;99.90;;;;;;5056434;28;20178;-81
2022/11/10 11:16:06;;;;;;;25.63;14.03;;;10.10;99.90;;;;;;5053457;28;20222;-80
2022/11/10 11:18:33;;;;;;;19.97;12.90;;;10.20;99.90;;;;;;5054537;28;20167;-79
2022/11/10 11:21:05;;;;;;;18.80;13.67;;;10.20;99.90;;;;;;5055478;28;20212;-84
2022/11/10 11:23:31;;;;;;;19.77;12.67;;;10.20;99.90;;;;;;5053704;28;20258;-80
2022/11/10 11:26:09;;;;;;;20.43;12.37;;;10.20;99.90;;;;;;5053272;28;20214;-81
2022/11/10 11:28:44;;;;;;;16.50;12.77;;;10.20;99.90;;;;;;5053315;28;20190;-80
2022/11/10 11:31:27;;;;;;;15.90;12.53;;;10.20;99.90;;;;;;5053457;28;20690;-79
2022/11/10 11:34:02;;;;;;;17.70;12.67;;;10.30;99.90;;;;;;5035332;28;20192;-80
2022/11/10 11:36:46;;;;;;;16.57;13.07;;;10.20;99.90;;;;;;5053521;28;20214;-80
2022/11/10 11:39:33;;;;;;;18.20;12.83;;;10.30;99.90;;;;;;5055052;28;20586;-81
2022/11/10 11:42:27;;;;;;;17.73;12.47;;;10.20;99.90;;;;;;5055666;28;20194;-79
2022/11/10 11:45:01;;;;;;;18.73;13.33;;;10.30;99.90;;;;;;5056633;28;20160;-80
2022/11/10 11:47:59;;;;;;;18.83;14.00;;;10.30;99.90;;;;;;5038742;28;20180;-79
2022/11/10 11:50:35;;;;;;;13.83;12.37;;;10.30;99.90;;;;;;5010178;28;20646;-79
2022/11/10 11:53:15;;;;;;;16.27;12.63;;;10.40;99.90;;;;;;5038753;28;20176;-84
2022/11/10 11:55:58;;;;;;;17.83;12.97;;;10.40;99.90;;;;;;5056841;28;20704;-85
2022/11/10 11:59:01;;;;;;;15.03;11.93;;;10.40;99.90;;;;;;5065939;28;20218;-85
2022/11/10 12:01:42;;;;;;;14.10;12.13;;;10.50;99.90;;;;;;4977818;28;20179;-85
2022/11/10 12:04:41;;;;;;;19.47;12.93;;;10.50;99.90;;;;;;5056773;28;20217;-85
2022/11/10 12:07:28;;;;;;;14.83;12.23;;;10.60;99.90;;;;;;5057313;28;20547;-85
2022/11/10 12:10:25;;;;;;;13.57;11.47;;;10.60;99.90;;;;;;5056532;28;20175;-82
2022/11/10 12:12:57;;;;;;;15.20;12.13;;;10.60;99.90;;;;;;5056667;28;20202;-83
2022/11/10 12:15:41;;;;;;;14.40;11.73;;;10.60;99.90;;;;;;5055950;28;20330;-85
2022/11/10 12:18:23;;;;;;;18.77;12.37;;;10.70;99.90;;;;;;5056570;28;20278;-84
2022/11/10 12:21:10;;;;;;;16.80;11.63;;;10.70;99.90;;;;;;5058169;28;20605;-83
2022/11/10 12:23:54;;;;;;;15.07;11.57;;;10.70;99.90;;;;;;5056391;28;20623;-84
2022/11/10 12:26:36;;;;;;;13.77;11.70;;;10.80;99.90;;;;;;5056232;28;20204;-83
2022/11/10 12:29:15;;;;;;;16.73;11.87;;;10.80;99.90;;;;;;5056595;28;20183;-86
2022/11/10 12:31:44;;;;;;;15.50;11.83;;;10.90;99.90;;;;;;5059241;28;20178;-85
2022/11/10 12:34:13;;;;;;;13.87;11.47;;;10.90;99.90;;;;;;5059867;28;20196;-83
2022/11/10 12:36:39;;;;;;;14.20;10.93;;;10.80;99.90;;;;;;5059390;28;20261;-84
2022/11/10 12:39:19;;;;;;;12.80;11.03;;;10.80;99.90;;;;;;5038410;28;20187;-82
2022/11/10 12:42:08;;;;;;;15.53;11.73;;;10.70;99.90;;;;;;5056354;28;20582;-81
2022/11/10 12:44:53;;;;;;;15.77;11.67;;;10.70;99.90;;;;;;5055388;28;20654;-84
2022/11/10 12:47:21;;;;;;;14.97;11.50;;;10.60;99.90;;;;;;5061167;28;20168;-79
2022/11/10 12:50:02;;;;;;;16.30;11.03;;;10.70;99.90;;;;;;5070974;28;20650;-82
2022/11/10 12:52:45;;;;;;;14.30;11.77;;;10.70;99.90;;;;;;5055798;28;20180;-84
2022/11/10 12:55:13;;;;;;;13.63;11.10;;;10.60;99.90;;;;;;5055783;28;20254;-82
2022/11/10 12:57:42;;;;;;;16.40;11.23;;;10.60;99.90;;;;;;5055274;28;20274;-84
2022/11/10 13:00:31;;;;;;;14.40;11.00;;;10.60;99.90;;;;;;5055720;28;20715;-80
2022/11/10 13:02:58;;;;;;;15.63;11.20;;;10.60;99.90;;;;;;5055782;28;20190;-84